sensor_id;sensor_type;location;lat;lon;timestamp;pressure;altitude;pressure_sealevel;temperature;humidity
68376;BME280;55318;52.068;5.188;2022-12-07T00:00:27;101899.0;;;4.75;95.79
68376;BME280;55318;52.068;5.188;2022-12-07T00:02:03;101905.0;;;5.04;94.87
68376;BME280;55318;52.068;5.188;2022-12-07T00:03:40;101901.0;;;5.26;95.16
68376;BME280;55318;52.068;5.188;2022-12-07T00:06:53;101901.0;;;5.34;96.24
68376;BME280;55318;52.068;5.188;2022-12-07T00:08:30;101892.0;;;5.61;96.11
68376;BME280;55318;52.068;5.188;2022-12-07T00:10:07;101891.0;;;5.79;95.7
68376;BME280;55318;52.068;5.188;2022-12-07T00:13:25;101886.0;;;5.99;95.35
68376;BME280;55318;52.068;5.188;2022-12-07T00:15:02;101888.0;;;5.97;95.34
68376;BME280;55318;52.068;5.188;2022-12-07T00:16:39;101885.0;;;6.2;94.77
68376;BME280;55318;52.068;5.188;2022-12-07T00:18:16;101892.0;;;6.31;94.57
68376;BME280;55318;52.068;5.188;2022-12-07T00:21:31;101890.0;;;6.27;93.97
68376;BME280;55318;52.068;5.188;2022-12-07T00:23:07;101889.0;;;6.29;94.23
68376;BME280;55318;52.068;5.188;2022-12-07T00:24:43;101882.0;;;6.25;93.96
68376;BME280;55318;52.068;5.188;2022-12-07T00:27:58;101880.0;;;6.15;94.37
68376;BME280;55318;52.068;5.188;2022-12-07T00:29:34;101874.0;;;6.1;93.67
68376;BME280;55318;52.068;5.188;2022-12-07T00:31:12;101881.0;;;5.96;93.29
68376;BME280;55318;52.068;5.188;2022-12-07T00:32:48;101880.0;;;5.85;93.86
68376;BME280;55318;52.068;5.188;2022-12-07T00:36:02;101872.0;;;5.91;93.62
68376;BME280;55318;52.068;5.188;2022-12-07T00:37:39;101869.0;;;6.13;92.74
68376;BME280;55318;52.068;5.188;2022-12-07T00:39:15;101868.0;;;5.8;93.05
68376;BME280;55318;52.068;5.188;2022-12-07T00:42:32;101870.0;;;5.66;93.21
68376;BME280;55318;52.068;5.188;2022-12-07T00:44:08;101873.0;;;5.84;92.63
68376;BME280;55318;52.068;5.188;2022-12-07T00:45:44;101867.0;;;5.53;93.22
68376;BME280;55318;52.068;5.188;2022-12-07T00:48:57;101866.0;;;5.41;93.91
68376;BME280;55318;52.068;5.188;2022-12-07T00:50:33;101871.0;;;5.33;94.34
68376;BME280;55318;52.068;5.188;2022-12-07T00:52:09;101862.0;;;5.33;93.88
68376;BME280;55318;52.068;5.188;2022-12-07T00:53:46;101871.0;;;5.27;93.75
68376;BME280;55318;52.068;5.188;2022-12-07T00:56:59;101869.0;;;5.31;93.56
68376;BME280;55318;52.068;5.188;2022-12-07T00:58:35;101869.0;;;5.13;93.58
68376;BME280;55318;52.068;5.188;2022-12-07T01:00:11;101870.0;;;5.33;93.23
68376;BME280;55318;52.068;5.188;2022-12-07T01:03:24;101868.0;;;5.25;93.0
68376;BME280;55318;52.068;5.188;2022-12-07T01:05:01;101868.0;;;5.31;92.98
68376;BME280;55318;52.068;5.188;2022-12-07T01:06:38;101856.0;;;4.99;93.1
68376;BME280;55318;52.068;5.188;2022-12-07T01:09:50;101856.0;;;4.93;92.56
68376;BME280;55318;52.068;5.188;2022-12-07T01:11:28;101855.0;;;4.74;93.03
68376;BME280;55318;52.068;5.188;2022-12-07T01:13:05;101859.0;;;4.53;93.83
68376;BME280;55318;52.068;5.188;2022-12-07T01:14:42;101861.0;;;4.43;94.02
68376;BME280;55318;52.068;5.188;2022-12-07T01:17:56;101868.0;;;4.32;94.05
68376;BME280;55318;52.068;5.188;2022-12-07T01:19:32;101868.0;;;4.24;94.21
68376;BME280;55318;52.068;5.188;2022-12-07T01:21:11;101870.0;;;4.12;94.47
68376;BME280;55318;52.068;5.188;2022-12-07T01:24:24;101870.0;;;4.16;94.75
68376;BME280;55318;52.068;5.188;2022-12-07T01:26:02;101870.0;;;4.09;94.69
68376;BME280;55318;52.068;5.188;2022-12-07T01:27:39;101873.0;;;3.99;94.35
68376;BME280;55318;52.068;5.188;2022-12-07T01:29:15;101872.0;;;3.91;94.71
68376;BME280;55318;52.068;5.188;2022-12-07T01:32:33;101866.0;;;3.92;94.58
68376;BME280;55318;52.068;5.188;2022-12-07T01:34:10;101869.0;;;3.82;94.86
68376;BME280;55318;52.068;5.188;2022-12-07T01:35:46;101868.0;;;3.77;94.69
68376;BME280;55318;52.068;5.188;2022-12-07T01:38:59;101868.0;;;3.75;95.15
68376;BME280;55318;52.068;5.188;2022-12-07T01:40:36;101866.0;;;3.83;95.24
68376;BME280;55318;52.068;5.188;2022-12-07T01:42:12;101863.0;;;3.95;94.95
68376;BME280;55318;52.068;5.188;2022-12-07T01:45:59;101867.0;;;3.91;95.72
68376;BME280;55318;52.068;5.188;2022-12-07T01:49:21;101865.0;;;3.99;95.66
68376;BME280;55318;52.068;5.188;2022-12-07T01:51:04;101869.0;;;3.9;95.71
68376;BME280;55318;52.068;5.188;2022-12-07T01:52:43;101859.0;;;3.91;95.47
68376;BME280;55318;52.068;5.188;2022-12-07T01:54:25;101862.0;;;3.93;95.32
68376;BME280;55318;52.068;5.188;2022-12-07T01:57:40;101870.0;;;3.9;95.6
68376;BME280;55318;52.068;5.188;2022-12-07T01:59:21;101864.0;;;3.85;95.46
68376;BME280;55318;52.068;5.188;2022-12-07T02:00:59;101864.0;;;3.77;94.83
68376;BME280;55318;52.068;5.188;2022-12-07T02:04:18;101869.0;;;3.83;95.34
68376;BME280;55318;52.068;5.188;2022-12-07T02:05:55;101864.0;;;4.12;94.67
68376;BME280;55318;52.068;5.188;2022-12-07T02:07:34;101868.0;;;4.43;94.29
68376;BME280;55318;52.068;5.188;2022-12-07T02:09:15;101868.0;;;4.53;94.36
68376;BME280;55318;52.068;5.188;2022-12-07T02:12:27;101874.0;;;4.71;94.56
68376;BME280;55318;52.068;5.188;2022-12-07T02:14:04;101869.0;;;4.87;94.49
68376;BME280;55318;52.068;5.188;2022-12-07T02:15:51;101869.0;;;5.03;94.29
68376;BME280;55318;52.068;5.188;2022-12-07T02:17:45;101872.0;;;5.11;93.91
68376;BME280;55318;52.068;5.188;2022-12-07T02:19:58;101872.0;;;5.26;93.99
68376;BME280;55318;52.068;5.188;2022-12-07T02:22:22;101866.0;;;5.29;94.21
68376;BME280;55318;52.068;5.188;2022-12-07T02:24:19;101862.0;;;5.46;94.18
68376;BME280;55318;52.068;5.188;2022-12-07T02:27:04;101858.0;;;5.62;93.54
68376;BME280;55318;52.068;5.188;2022-12-07T02:29:33;101856.0;;;5.57;94.13
68376;BME280;55318;52.068;5.188;2022-12-07T02:31:16;101855.0;;;5.63;93.85
68376;BME280;55318;52.068;5.188;2022-12-07T02:32:59;101855.0;;;5.77;93.32
68376;BME280;55318;52.068;5.188;2022-12-07T02:34:45;101855.0;;;5.7;93.89
68376;BME280;55318;52.068;5.188;2022-12-07T02:36:27;101855.0;;;5.67;94.21
68376;BME280;55318;52.068;5.188;2022-12-07T02:39:55;101852.0;;;5.71;94.51
68376;BME280;55318;52.068;5.188;2022-12-07T02:41:39;101855.0;;;5.73;93.87
68376;BME280;55318;52.068;5.188;2022-12-07T02:43:21;101848.0;;;5.68;94.23
68376;BME280;55318;52.068;5.188;2022-12-07T02:45:01;101848.0;;;5.58;94.53
68376;BME280;55318;52.068;5.188;2022-12-07T02:46:42;101843.0;;;5.75;94.12
68376;BME280;55318;52.068;5.188;2022-12-07T02:49:57;101848.0;;;5.74;93.73
68376;BME280;55318;52.068;5.188;2022-12-07T02:51:33;101845.0;;;5.42;93.99
68376;BME280;55318;52.068;5.188;2022-12-07T02:53:46;101843.0;;;5.32;94.64
68376;BME280;55318;52.068;5.188;2022-12-07T02:55:26;101845.0;;;5.15;94.96
68376;BME280;55318;52.068;5.188;2022-12-07T02:59:04;101850.0;;;5.03;94.72
68376;BME280;55318;52.068;5.188;2022-12-07T03:01:04;101847.0;;;4.92;94.67
68376;BME280;55318;52.068;5.188;2022-12-07T03:02:51;101849.0;;;4.78;94.52
68376;BME280;55318;52.068;5.188;2022-12-07T03:04:39;101851.0;;;4.75;94.86
68376;BME280;55318;52.068;5.188;2022-12-07T03:06:22;101850.0;;;4.66;94.56
68376;BME280;55318;52.068;5.188;2022-12-07T03:08:07;101855.0;;;4.53;94.86
68376;BME280;55318;52.068;5.188;2022-12-07T03:09:53;101852.0;;;4.42;95.5
68376;BME280;55318;52.068;5.188;2022-12-07T03:13:24;101856.0;;;4.41;95.75
68376;BME280;55318;52.068;5.188;2022-12-07T03:15:08;101850.0;;;4.51;95.76
68376;BME280;55318;52.068;5.188;2022-12-07T03:16:52;101846.0;;;4.53;95.75
68376;BME280;55318;52.068;5.188;2022-12-07T03:18:34;101841.0;;;4.46;95.78
68376;BME280;55318;52.068;5.188;2022-12-07T03:20:18;101848.0;;;4.7;95.35
68376;BME280;55318;52.068;5.188;2022-12-07T03:23:40;101844.0;;;4.62;95.35
68376;BME280;55318;52.068;5.188;2022-12-07T03:25:20;101844.0;;;4.46;95.66
68376;BME280;55318;52.068;5.188;2022-12-07T03:27:01;101837.0;;;4.49;95.53
68376;BME280;55318;52.068;5.188;2022-12-07T03:28:51;101845.0;;;4.41;95.59
68376;BME280;55318;52.068;5.188;2022-12-07T03:32:23;101841.0;;;4.28;95.59
68376;BME280;55318;52.068;5.188;2022-12-07T03:34:06;101835.0;;;4.18;95.69
68376;BME280;55318;52.068;5.188;2022-12-07T03:35:53;101839.0;;;4.13;95.69
68376;BME280;55318;52.068;5.188;2022-12-07T03:37:40;101839.0;;;3.99;95.39
68376;BME280;55318;52.068;5.188;2022-12-07T03:39:23;101834.0;;;3.91;95.28
68376;BME280;55318;52.068;5.188;2022-12-07T03:41:06;101836.0;;;3.91;95.71
68376;BME280;55318;52.068;5.188;2022-12-07T03:44:23;101837.0;;;3.86;95.76
68376;BME280;55318;52.068;5.188;2022-12-07T03:46:04;101835.0;;;3.79;95.35
68376;BME280;55318;52.068;5.188;2022-12-07T03:47:54;101833.0;;;3.71;95.27
68376;BME280;55318;52.068;5.188;2022-12-07T03:49:42;101831.0;;;3.63;95.12
68376;BME280;55318;52.068;5.188;2022-12-07T03:53:09;101832.0;;;3.66;95.57
68376;BME280;55318;52.068;5.188;2022-12-07T03:54:52;101827.0;;;3.54;95.46
68376;BME280;55318;52.068;5.188;2022-12-07T03:56:34;101830.0;;;3.57;96.09
68376;BME280;55318;52.068;5.188;2022-12-07T03:58:14;101836.0;;;3.59;96.3
68376;BME280;55318;52.068;5.188;2022-12-07T03:59:54;101839.0;;;3.65;96.49
68376;BME280;55318;52.068;5.188;2022-12-07T04:03:08;101836.0;;;3.73;96.57
68376;BME280;55318;52.068;5.188;2022-12-07T04:04:45;101830.0;;;3.71;96.98
68376;BME280;55318;52.068;5.188;2022-12-07T04:06:21;101832.0;;;3.73;97.12
68376;BME280;55318;52.068;5.188;2022-12-07T04:09:33;101831.0;;;3.76;96.96
68376;BME280;55318;52.068;5.188;2022-12-07T04:11:09;101832.0;;;3.73;96.99
68376;BME280;55318;52.068;5.188;2022-12-07T04:12:47;101830.0;;;3.7;96.98
68376;BME280;55318;52.068;5.188;2022-12-07T04:15:59;101824.0;;;3.7;96.92
68376;BME280;55318;52.068;5.188;2022-12-07T04:17:35;101831.0;;;3.79;96.62
68376;BME280;55318;52.068;5.188;2022-12-07T04:19:13;101826.0;;;3.81;96.31
68376;BME280;55318;52.068;5.188;2022-12-07T04:20:50;101821.0;;;3.76;95.97
68376;BME280;55318;52.068;5.188;2022-12-07T04:24:02;101822.0;;;3.71;96.04
68376;BME280;55318;52.068;5.188;2022-12-07T04:25:39;101827.0;;;3.72;96.2
68376;BME280;55318;52.068;5.188;2022-12-07T04:27:16;101823.0;;;3.67;95.7
68376;BME280;55318;52.068;5.188;2022-12-07T04:30:29;101825.0;;;3.85;95.45
68376;BME280;55318;52.068;5.188;2022-12-07T04:32:05;101830.0;;;3.77;95.67
68376;BME280;55318;52.068;5.188;2022-12-07T04:33:41;101827.0;;;3.88;95.56
68376;BME280;55318;52.068;5.188;2022-12-07T04:36:53;101826.0;;;3.82;95.22
68376;BME280;55318;52.068;5.188;2022-12-07T04:38:29;101822.0;;;4.0;95.47
68376;BME280;55318;52.068;5.188;2022-12-07T04:40:08;101815.0;;;3.89;95.18
68376;BME280;55318;52.068;5.188;2022-12-07T04:41:45;101818.0;;;3.84;95.28
68376;BME280;55318;52.068;5.188;2022-12-07T04:44:57;101818.0;;;3.74;95.79
68376;BME280;55318;52.068;5.188;2022-12-07T04:46:33;101825.0;;;3.76;95.62
68376;BME280;55318;52.068;5.188;2022-12-07T04:48:09;101824.0;;;3.89;95.58
68376;BME280;55318;52.068;5.188;2022-12-07T04:51:23;101826.0;;;3.74;95.95
68376;BME280;55318;52.068;5.188;2022-12-07T04:53:01;101824.0;;;3.79;95.78
68376;BME280;55318;52.068;5.188;2022-12-07T04:54:37;101820.0;;;3.77;95.9
68376;BME280;55318;52.068;5.188;2022-12-07T04:57:50;101815.0;;;3.68;95.97
68376;BME280;55318;52.068;5.188;2022-12-07T04:59:27;101813.0;;;3.65;96.38
68376;BME280;55318;52.068;5.188;2022-12-07T05:01:03;101808.0;;;3.61;96.27
68376;BME280;55318;52.068;5.188;2022-12-07T05:02:39;101811.0;;;3.63;96.11
68376;BME280;55318;52.068;5.188;2022-12-07T05:05:52;101805.0;;;3.57;95.91
68376;BME280;55318;52.068;5.188;2022-12-07T05:07:28;101806.0;;;3.51;95.95
68376;BME280;55318;52.068;5.188;2022-12-07T05:09:05;101809.0;;;3.51;95.88
68376;BME280;55318;52.068;5.188;2022-12-07T05:12:18;101803.0;;;3.48;95.67
68376;BME280;55318;52.068;5.188;2022-12-07T05:13:55;101805.0;;;3.58;95.63
68376;BME280;55318;52.068;5.188;2022-12-07T05:15:31;101809.0;;;3.8;95.08
68376;BME280;55318;52.068;5.188;2022-12-07T05:18:44;101809.0;;;3.69;95.83
68376;BME280;55318;52.068;5.188;2022-12-07T05:20:20;101810.0;;;3.88;95.62
68376;BME280;55318;52.068;5.188;2022-12-07T05:21:56;101807.0;;;3.91;95.61
68376;BME280;55318;52.068;5.188;2022-12-07T05:25:08;101806.0;;;3.91;95.77
68376;BME280;55318;52.068;5.188;2022-12-07T05:26:45;101805.0;;;3.75;96.09
68376;BME280;55318;52.068;5.188;2022-12-07T05:28:22;101802.0;;;3.76;96.23
68376;BME280;55318;52.068;5.188;2022-12-07T05:29:58;101800.0;;;3.71;96.32
68376;BME280;55318;52.068;5.188;2022-12-07T05:33:10;101799.0;;;3.69;96.86
68376;BME280;55318;52.068;5.188;2022-12-07T05:34:47;101805.0;;;3.76;96.62
68376;BME280;55318;52.068;5.188;2022-12-07T05:36:23;101805.0;;;3.66;96.45
68376;BME280;55318;52.068;5.188;2022-12-07T05:39:35;101808.0;;;3.73;96.5
68376;BME280;55318;52.068;5.188;2022-12-07T05:42:12;101805.0;;;3.72;96.26
68376;BME280;55318;52.068;5.188;2022-12-07T05:43:48;101806.0;;;3.71;96.36
68376;BME280;55318;52.068;5.188;2022-12-07T05:45:24;101807.0;;;3.71;96.34
68376;BME280;55318;52.068;5.188;2022-12-07T05:47:00;101807.0;;;3.81;96.11
68376;BME280;55318;52.068;5.188;2022-12-07T05:50:12;101810.0;;;3.92;95.95
68376;BME280;55318;52.068;5.188;2022-12-07T05:51:48;101805.0;;;3.96;96.03
68376;BME280;55318;52.068;5.188;2022-12-07T05:53:25;101807.0;;;4.04;96.04
68376;BME280;55318;52.068;5.188;2022-12-07T05:55:01;101806.0;;;4.13;95.94
68376;BME280;55318;52.068;5.188;2022-12-07T05:59:30;101799.0;;;4.21;95.67
68376;BME280;55318;52.068;5.188;2022-12-07T06:01:06;101796.0;;;4.18;95.96
68376;BME280;55318;52.068;5.188;2022-12-07T06:02:43;101797.0;;;4.25;96.11
68376;BME280;55318;52.068;5.188;2022-12-07T06:04:19;101799.0;;;4.28;96.18
68376;BME280;55318;52.068;5.188;2022-12-07T06:05:56;101796.0;;;4.28;96.11
68376;BME280;55318;52.068;5.188;2022-12-07T06:07:32;101799.0;;;4.37;95.49
68376;BME280;55318;52.068;5.188;2022-12-07T06:10:47;101799.0;;;4.28;95.37
68376;BME280;55318;52.068;5.188;2022-12-07T06:12:39;101797.0;;;4.29;95.25
68376;BME280;55318;52.068;5.188;2022-12-07T06:14:16;101800.0;;;4.07;95.46
68376;BME280;55318;52.068;5.188;2022-12-07T06:15:52;101801.0;;;3.99;95.28
68376;BME280;55318;52.068;5.188;2022-12-07T06:19:04;101801.0;;;3.93;95.34
68376;BME280;55318;52.068;5.188;2022-12-07T06:20:40;101803.0;;;3.99;95.45
68376;BME280;55318;52.068;5.188;2022-12-07T06:22:17;101807.0;;;3.86;94.73
68376;BME280;55318;52.068;5.188;2022-12-07T06:25:30;101803.0;;;3.75;94.99
68376;BME280;55318;52.068;5.188;2022-12-07T06:27:06;101802.0;;;3.77;95.18
68376;BME280;55318;52.068;5.188;2022-12-07T06:28:43;101803.0;;;3.6;95.12
68376;BME280;55318;52.068;5.188;2022-12-07T06:31:56;101797.0;;;3.57;95.35
68376;BME280;55318;52.068;5.188;2022-12-07T06:33:32;101805.0;;;3.61;95.91
68376;BME280;55318;52.068;5.188;2022-12-07T06:35:09;101805.0;;;3.59;96.24
68376;BME280;55318;52.068;5.188;2022-12-07T06:36:46;101810.0;;;3.72;96.39
68376;BME280;55318;52.068;5.188;2022-12-07T06:40:00;101809.0;;;3.76;96.42
68376;BME280;55318;52.068;5.188;2022-12-07T06:41:37;101807.0;;;3.72;96.28
68376;BME280;55318;52.068;5.188;2022-12-07T06:43:13;101805.0;;;3.7;96.64
68376;BME280;55318;52.068;5.188;2022-12-07T06:46:26;101808.0;;;3.71;96.56
68376;BME280;55318;52.068;5.188;2022-12-07T06:48:03;101808.0;;;3.69;96.25
68376;BME280;55318;52.068;5.188;2022-12-07T06:49:39;101801.0;;;3.61;96.11
68376;BME280;55318;52.068;5.188;2022-12-07T06:52:52;101803.0;;;3.58;95.79
68376;BME280;55318;52.068;5.188;2022-12-07T06:54:30;101800.0;;;3.53;95.9
68376;BME280;55318;52.068;5.188;2022-12-07T06:56:07;101803.0;;;3.5;95.82
68376;BME280;55318;52.068;5.188;2022-12-07T06:57:44;101805.0;;;3.39;95.76
68376;BME280;55318;52.068;5.188;2022-12-07T07:00:57;101805.0;;;3.48;95.85
68376;BME280;55318;52.068;5.188;2022-12-07T07:02:33;101805.0;;;3.39;95.8
68376;BME280;55318;52.068;5.188;2022-12-07T07:04:09;101807.0;;;3.46;96.31
68376;BME280;55318;52.068;5.188;2022-12-07T07:07:21;101811.0;;;3.53;96.45
68376;BME280;55318;52.068;5.188;2022-12-07T07:08:58;101815.0;;;3.58;96.4
68376;BME280;55318;52.068;5.188;2022-12-07T07:10:34;101814.0;;;3.52;96.27
68376;BME280;55318;52.068;5.188;2022-12-07T07:13:47;101810.0;;;3.49;96.47
68376;BME280;55318;52.068;5.188;2022-12-07T07:15:23;101807.0;;;3.45;96.43
68376;BME280;55318;52.068;5.188;2022-12-07T07:17:00;101809.0;;;3.46;96.44
68376;BME280;55318;52.068;5.188;2022-12-07T07:18:36;101803.0;;;3.45;96.38
68376;BME280;55318;52.068;5.188;2022-12-07T07:21:49;101806.0;;;3.52;96.38
68376;BME280;55318;52.068;5.188;2022-12-07T07:23:25;101805.0;;;3.47;95.92
68376;BME280;55318;52.068;5.188;2022-12-07T07:25:02;101800.0;;;3.47;96.16
68376;BME280;55318;52.068;5.188;2022-12-07T07:28:16;101803.0;;;3.41;96.37
68376;BME280;55318;52.068;5.188;2022-12-07T07:29:52;101800.0;;;3.47;95.94
68376;BME280;55318;52.068;5.188;2022-12-07T07:31:28;101802.0;;;3.45;95.62
68376;BME280;55318;52.068;5.188;2022-12-07T07:34:42;101805.0;;;3.39;95.22
68376;BME280;55318;52.068;5.188;2022-12-07T07:36:18;101805.0;;;3.31;95.14
68376;BME280;55318;52.068;5.188;2022-12-07T07:37:54;101807.0;;;3.21;95.39
68376;BME280;55318;52.068;5.188;2022-12-07T07:39:31;101810.0;;;3.22;95.57
68376;BME280;55318;52.068;5.188;2022-12-07T07:42:43;101813.0;;;3.11;95.68
68376;BME280;55318;52.068;5.188;2022-12-07T07:44:19;101814.0;;;3.09;95.9
68376;BME280;55318;52.068;5.188;2022-12-07T07:45:55;101810.0;;;3.12;95.83
68376;BME280;55318;52.068;5.188;2022-12-07T07:49:08;101806.0;;;3.15;95.52
68376;BME280;55318;52.068;5.188;2022-12-07T07:50:45;101803.0;;;3.13;95.4
68376;BME280;55318;52.068;5.188;2022-12-07T07:52:20;101810.0;;;3.1;95.46
68376;BME280;55318;52.068;5.188;2022-12-07T07:55:33;101806.0;;;3.14;95.34
68376;BME280;55318;52.068;5.188;2022-12-07T07:57:10;101811.0;;;3.15;95.24
68376;BME280;55318;52.068;5.188;2022-12-07T07:58:46;101810.0;;;3.11;95.32
68376;BME280;55318;52.068;5.188;2022-12-07T08:01:58;101808.0;;;3.07;95.62
68376;BME280;55318;52.068;5.188;2022-12-07T08:03:35;101812.0;;;2.97;95.64
68376;BME280;55318;52.068;5.188;2022-12-07T08:05:12;101809.0;;;3.1;95.65
68376;BME280;55318;52.068;5.188;2022-12-07T08:06:49;101814.0;;;3.1;95.73
68376;BME280;55318;52.068;5.188;2022-12-07T08:10:01;101813.0;;;3.06;95.47
68376;BME280;55318;52.068;5.188;2022-12-07T08:11:38;101815.0;;;3.06;95.57
68376;BME280;55318;52.068;5.188;2022-12-07T08:13:15;101813.0;;;3.08;95.96
68376;BME280;55318;52.068;5.188;2022-12-07T08:16:29;101814.0;;;3.12;95.97
68376;BME280;55318;52.068;5.188;2022-12-07T08:18:05;101815.0;;;3.21;96.29
68376;BME280;55318;52.068;5.188;2022-12-07T08:19:42;101816.0;;;3.38;95.61
68376;BME280;55318;52.068;5.188;2022-12-07T08:22:54;101819.0;;;3.38;95.55
68376;BME280;55318;52.068;5.188;2022-12-07T08:24:33;101818.0;;;3.48;96.1
68376;BME280;55318;52.068;5.188;2022-12-07T08:26:11;101817.0;;;3.56;95.86
68376;BME280;55318;52.068;5.188;2022-12-07T08:27:48;101814.0;;;3.7;96.15
68376;BME280;55318;52.068;5.188;2022-12-07T08:31:02;101825.0;;;4.12;97.24
68376;BME280;55318;52.068;5.188;2022-12-07T08:32:40;101834.0;;;4.33;96.5
68376;BME280;55318;52.068;5.188;2022-12-07T08:34:16;101833.0;;;4.66;96.1
68376;BME280;55318;52.068;5.188;2022-12-07T08:37:28;101836.0;;;4.87;95.21
68376;BME280;55318;52.068;5.188;2022-12-07T08:39:04;101845.0;;;4.99;94.61
68376;BME280;55318;52.068;5.188;2022-12-07T08:40:41;101847.0;;;5.42;92.65
68376;BME280;55318;52.068;5.188;2022-12-07T08:42:17;101849.0;;;5.63;91.3
68376;BME280;55318;52.068;5.188;2022-12-07T08:45:32;101842.0;;;5.97;90.1
68376;BME280;55318;52.068;5.188;2022-12-07T08:47:09;101842.0;;;6.02;90.63
68376;BME280;55318;52.068;5.188;2022-12-07T08:48:50;101834.0;;;6.05;90.68
68376;BME280;55318;52.068;5.188;2022-12-07T08:52:07;101830.0;;;6.06;91.38
68376;BME280;55318;52.068;5.188;2022-12-07T08:53:43;101831.0;;;6.22;91.96
68376;BME280;55318;52.068;5.188;2022-12-07T08:55:20;101826.0;;;6.26;92.37
68376;BME280;55318;52.068;5.188;2022-12-07T08:56:57;101833.0;;;6.49;90.58
68376;BME280;55318;52.068;5.188;2022-12-07T09:00:13;101833.0;;;6.57;90.35
68376;BME280;55318;52.068;5.188;2022-12-07T09:01:50;101835.0;;;6.51;89.27
68376;BME280;55318;52.068;5.188;2022-12-07T09:03:26;101840.0;;;6.51;89.3
68376;BME280;55318;52.068;5.188;2022-12-07T09:06:40;101838.0;;;6.48;89.98
68376;BME280;55318;52.068;5.188;2022-12-07T09:08:18;101835.0;;;6.66;88.79
68376;BME280;55318;52.068;5.188;2022-12-07T09:09:56;101833.0;;;6.45;89.93
68376;BME280;55318;52.068;5.188;2022-12-07T09:13:08;101835.0;;;6.57;89.23
68376;BME280;55318;52.068;5.188;2022-12-07T09:14:44;101834.0;;;6.53;89.32
68376;BME280;55318;52.068;5.188;2022-12-07T09:16:20;101831.0;;;6.78;88.64
68376;BME280;55318;52.068;5.188;2022-12-07T09:17:57;101831.0;;;6.42;90.82
68376;BME280;55318;52.068;5.188;2022-12-07T09:21:09;101831.0;;;6.4;91.44
68376;BME280;55318;52.068;5.188;2022-12-07T09:22:45;101833.0;;;6.37;92.14
68376;BME280;55318;52.068;5.188;2022-12-07T09:24:22;101827.0;;;6.49;93.16
68376;BME280;55318;52.068;5.188;2022-12-07T09:27:36;101825.0;;;6.71;92.49
68376;BME280;55318;52.068;5.188;2022-12-07T09:29:12;101823.0;;;6.82;90.73
68376;BME280;55318;52.068;5.188;2022-12-07T09:30:48;101822.0;;;6.69;91.0
68376;BME280;55318;52.068;5.188;2022-12-07T09:34:01;101826.0;;;6.72;91.08
68376;BME280;55318;52.068;5.188;2022-12-07T09:35:38;101830.0;;;6.97;89.14
68376;BME280;55318;52.068;5.188;2022-12-07T09:37:14;101828.0;;;6.73;89.84
68376;BME280;55318;52.068;5.188;2022-12-07T09:38:50;101830.0;;;6.71;90.82
68376;BME280;55318;52.068;5.188;2022-12-07T09:42:05;101830.0;;;6.77;91.69
68376;BME280;55318;52.068;5.188;2022-12-07T09:43:43;101826.0;;;6.86;92.93
68376;BME280;55318;52.068;5.188;2022-12-07T09:45:23;101828.0;;;7.0;91.23
68376;BME280;55318;52.068;5.188;2022-12-07T09:48:37;101823.0;;;7.08;91.0
68376;BME280;55318;52.068;5.188;2022-12-07T09:50:15;101824.0;;;7.29;89.87
68376;BME280;55318;52.068;5.188;2022-12-07T09:52:03;101827.0;;;7.34;89.64
68376;BME280;55318;52.068;5.188;2022-12-07T09:55:42;101824.0;;;7.49;87.9
68376;BME280;55318;52.068;5.188;2022-12-07T09:59:12;101820.0;;;7.55;87.68
68376;BME280;55318;52.068;5.188;2022-12-07T10:00:50;101817.0;;;7.62;86.3
68376;BME280;55318;52.068;5.188;2022-12-07T10:02:35;101820.0;;;7.57;86.55
68376;BME280;55318;52.068;5.188;2022-12-07T10:04:16;101826.0;;;7.54;86.94
68376;BME280;55318;52.068;5.188;2022-12-07T10:07:31;101825.0;;;7.65;85.85
68376;BME280;55318;52.068;5.188;2022-12-07T10:09:10;101821.0;;;7.68;85.95
68376;BME280;55318;52.068;5.188;2022-12-07T10:10:50;101814.0;;;7.76;86.96
68376;BME280;55318;52.068;5.188;2022-12-07T10:12:28;101811.0;;;7.9;88.18
68376;BME280;55318;52.068;5.188;2022-12-07T10:15:51;101805.0;;;8.06;86.98
68376;BME280;55318;52.068;5.188;2022-12-07T10:17:33;101793.0;;;8.06;87.67
68376;BME280;55318;52.068;5.188;2022-12-07T10:19:19;101789.0;;;8.14;86.89
68376;BME280;55318;52.068;5.188;2022-12-07T10:21:04;101789.0;;;8.08;86.23
68376;BME280;55318;52.068;5.188;2022-12-07T10:24:30;101786.0;;;8.18;83.57
68376;BME280;55318;52.068;5.188;2022-12-07T10:26:48;101788.0;;;8.19;83.34
68376;BME280;55318;52.068;5.188;2022-12-07T10:28:34;101790.0;;;8.31;82.0
68376;BME280;55318;52.068;5.188;2022-12-07T10:30:14;101787.0;;;8.16;82.39
68376;BME280;55318;52.068;5.188;2022-12-07T10:31:59;101787.0;;;7.98;83.62
68376;BME280;55318;52.068;5.188;2022-12-07T10:33:48;101787.0;;;8.0;84.1
68376;BME280;55318;52.068;5.188;2022-12-07T10:35:27;101785.0;;;8.14;82.81
68376;BME280;55318;52.068;5.188;2022-12-07T10:39:01;101781.0;;;8.15;82.53
68376;BME280;55318;52.068;5.188;2022-12-07T10:40:38;101778.0;;;8.23;82.79
68376;BME280;55318;52.068;5.188;2022-12-07T10:42:17;101771.0;;;8.16;83.54
68376;BME280;55318;52.068;5.188;2022-12-07T10:43:56;101768.0;;;8.11;84.27
68376;BME280;55318;52.068;5.188;2022-12-07T10:47:25;101762.0;;;8.26;84.57
68376;BME280;55318;52.068;5.188;2022-12-07T10:49:23;101770.0;;;8.4;82.44
68376;BME280;55318;52.068;5.188;2022-12-07T10:52:32;101773.0;;;8.66;81.03
68376;BME280;55318;52.068;5.188;2022-12-07T10:54:25;101775.0;;;8.63;80.11
68376;BME280;55318;52.068;5.188;2022-12-07T10:56:23;101768.0;;;8.66;80.28
68376;BME280;55318;52.068;5.188;2022-12-07T10:58:31;101772.0;;;8.64;79.38
68376;BME280;55318;52.068;5.188;2022-12-07T11:02:01;101769.0;;;8.69;79.83
68376;BME280;55318;52.068;5.188;2022-12-07T11:04:03;101775.0;;;8.78;79.55
68376;BME280;55318;52.068;5.188;2022-12-07T11:05:57;101780.0;;;8.67;79.12
68376;BME280;55318;52.068;5.188;2022-12-07T11:07:49;101780.0;;;8.64;79.66
68376;BME280;55318;52.068;5.188;2022-12-07T11:10:03;101780.0;;;8.48;80.92
68376;BME280;55318;52.068;5.188;2022-12-07T11:11:47;101778.0;;;8.59;80.44
68376;BME280;55318;52.068;5.188;2022-12-07T11:13:36;101769.0;;;8.61;80.74
68376;BME280;55318;52.068;5.188;2022-12-07T11:15:24;101767.0;;;8.48;81.72
68376;BME280;55318;52.068;5.188;2022-12-07T11:18:59;101759.0;;;8.31;82.31
68376;BME280;55318;52.068;5.188;2022-12-07T11:20:45;101763.0;;;8.33;80.97